sensor_id;sensor_type;location;lat;lon;timestamp;P1;durP1;ratioP1;P2;durP2;ratioP2
9541;SDS011;4809;48.224;8.572;2023-05-16T00:00:13;5.95;;;5.35;;
9541;SDS011;4809;48.224;8.572;2023-05-16T00:02:39;6.50;;;5.90;;
9541;SDS011;4809;48.224;8.572;2023-05-16T00:05:06;5.97;;;5.30;;
9541;SDS011;4809;48.224;8.572;2023-05-16T00:07:32;5.70;;;5.20;;
9541;SDS011;4809;48.224;8.572;2023-05-16T00:09:59;6.40;;;5.43;;
9541;SDS011;4809;48.224;8.572;2023-05-16T00:12:24;6.35;;;5.43;;
9541;SDS011;4809;48.224;8.572;2023-05-16T00:14:52;6.18;;;5.57;;
9541;SDS011;4809;48.224;8.572;2023-05-16T00:17:18;6.50;;;5.82;;
9541;SDS011;4809;48.224;8.572;2023-05-16T00:19:45;6.53;;;5.88;;
9541;SDS011;4809;48.224;8.572;2023-05-16T00:22:13;6.85;;;5.78;;
9541;SDS011;4809;48.224;8.572;2023-05-16T00:24:39;6.50;;;5.85;;
9541;SDS011;4809;48.224;8.572;2023-05-16T00:27:05;7.70;;;5.30;;
9541;SDS011;4809;48.224;8.572;2023-05-16T00:29:32;6.00;;;5.40;;
9541;SDS011;4809;48.224;8.572;2023-05-16T00:32:00;6.70;;;6.00;;
9541;SDS011;4809;48.224;8.572;2023-05-16T00:34:25;5.93;;;5.32;;
9541;SDS011;4809;48.224;8.572;2023-05-16T00:36:51;6.47;;;5.88;;
9541;SDS011;4809;48.224;8.572;2023-05-16T00:39:17;6.43;;;5.78;;
9541;SDS011;4809;48.224;8.572;2023-05-16T00:41:44;7.18;;;6.50;;
9541;SDS011;4809;48.224;8.572;2023-05-16T00:44:10;7.35;;;6.43;;
9541;SDS011;4809;48.224;8.572;2023-05-16T00:46:36;6.88;;;6.18;;
9541;SDS011;4809;48.224;8.572;2023-05-16T00:49:02;8.63;;;6.68;;
9541;SDS011;4809;48.224;8.572;2023-05-16T00:51:28;7.75;;;6.95;;
9541;SDS011;4809;48.224;8.572;2023-05-16T00:53:54;9.57;;;7.50;;
9541;SDS011;4809;48.224;8.572;2023-05-16T00:56:21;8.18;;;7.38;;
9541;SDS011;4809;48.224;8.572;2023-05-16T00:58:47;9.05;;;7.63;;
9541;SDS011;4809;48.224;8.572;2023-05-16T01:01:14;8.57;;;7.78;;
9541;SDS011;4809;48.224;8.572;2023-05-16T01:03:40;8.57;;;7.68;;
9541;SDS011;4809;48.224;8.572;2023-05-16T01:06:09;8.77;;;7.97;;
9541;SDS011;4809;48.224;8.572;2023-05-16T01:08:36;8.73;;;7.82;;
9541;SDS011;4809;48.224;8.572;2023-05-16T01:16:25;9.38;;;8.43;;
9541;SDS011;4809;48.224;8.572;2023-05-16T01:19:02;8.85;;;8.00;;
9541;SDS011;4809;48.224;8.572;2023-05-16T01:24:33;8.73;;;7.82;;
9541;SDS011;4809;48.224;8.572;2023-05-16T01:27:07;9.15;;;7.85;;
9541;SDS011;4809;48.224;8.572;2023-05-16T01:29:35;9.15;;;8.23;;
9541;SDS011;4809;48.224;8.572;2023-05-16T01:32:00;10.02;;;8.70;;
9541;SDS011;4809;48.224;8.572;2023-05-16T01:34:26;9.55;;;8.50;;
9541;SDS011;4809;48.224;8.572;2023-05-16T01:39:43;9.02;;;8.13;;
9541;SDS011;4809;48.224;8.572;2023-05-16T01:42:18;9.98;;;8.45;;
9541;SDS011;4809;48.224;8.572;2023-05-16T01:47:23;10.50;;;8.52;;
9541;SDS011;4809;48.224;8.572;2023-05-16T01:52:38;9.32;;;8.43;;
9541;SDS011;4809;48.224;8.572;2023-05-16T01:55:09;10.60;;;8.70;;
9541;SDS011;4809;48.224;8.572;2023-05-16T01:57:39;9.45;;;8.38;;
9541;SDS011;4809;48.224;8.572;2023-05-16T02:00:07;8.80;;;8.00;;
9541;SDS011;4809;48.224;8.572;2023-05-16T02:02:33;8.93;;;8.02;;
9541;SDS011;4809;48.224;8.572;2023-05-16T02:04:58;11.57;;;9.15;;
9541;SDS011;4809;48.224;8.572;2023-05-16T02:07:24;9.52;;;8.57;;
9541;SDS011;4809;48.224;8.572;2023-05-16T02:09:50;9.73;;;8.73;;
9541;SDS011;4809;48.224;8.572;2023-05-16T02:12:16;9.00;;;8.10;;
9541;SDS011;4809;48.224;8.572;2023-05-16T02:14:42;10.57;;;8.40;;
9541;SDS011;4809;48.224;8.572;2023-05-16T02:17:08;9.48;;;8.18;;
9541;SDS011;4809;48.224;8.572;2023-05-16T02:19:33;9.10;;;8.20;;
9541;SDS011;4809;48.224;8.572;2023-05-16T02:21:59;9.60;;;8.60;;
9541;SDS011;4809;48.224;8.572;2023-05-16T02:24:25;9.52;;;8.30;;
9541;SDS011;4809;48.224;8.572;2023-05-16T02:26:50;9.82;;;8.63;;
9541;SDS011;4809;48.224;8.572;2023-05-16T02:29:16;9.70;;;8.75;;
9541;SDS011;4809;48.224;8.572;2023-05-16T02:31:42;10.43;;;8.20;;
9541;SDS011;4809;48.224;8.572;2023-05-16T02:34:07;8.70;;;7.80;;
9541;SDS011;4809;48.224;8.572;2023-05-16T02:36:33;9.77;;;8.77;;
9541;SDS011;4809;48.224;8.572;2023-05-16T02:39:00;8.70;;;7.80;;
9541;SDS011;4809;48.224;8.572;2023-05-16T02:41:27;8.77;;;7.72;;
9541;SDS011;4809;48.224;8.572;2023-05-16T02:43:53;8.48;;;7.45;;
9541;SDS011;4809;48.224;8.572;2023-05-16T02:46:23;8.77;;;7.40;;
9541;SDS011;4809;48.224;8.572;2023-05-16T02:48:52;9.27;;;8.13;;
9541;SDS011;4809;48.224;8.572;2023-05-16T02:51:19;10.02;;;9.00;;
9541;SDS011;4809;48.224;8.572;2023-05-16T02:53:46;10.10;;;9.00;;
9541;SDS011;4809;48.224;8.572;2023-05-16T02:56:11;9.70;;;8.70;;
9541;SDS011;4809;48.224;8.572;2023-05-16T02:58:37;10.45;;;9.23;;
9541;SDS011;4809;48.224;8.572;2023-05-16T03:01:03;10.20;;;9.20;;
9541;SDS011;4809;48.224;8.572;2023-05-16T03:03:28;10.05;;;8.57;;
9541;SDS011;4809;48.224;8.572;2023-05-16T03:05:54;10.15;;;8.90;;
9541;SDS011;4809;48.224;8.572;2023-05-16T03:08:20;8.85;;;7.78;;
9541;SDS011;4809;48.224;8.572;2023-05-16T03:10:46;9.02;;;8.02;;
9541;SDS011;4809;48.224;8.572;2023-05-16T03:13:11;8.30;;;7.50;;
9541;SDS011;4809;48.224;8.572;2023-05-16T03:15:37;8.10;;;7.30;;
9541;SDS011;4809;48.224;8.572;2023-05-16T03:18:03;8.70;;;7.80;;
9541;SDS011;4809;48.224;8.572;2023-05-16T03:20:28;8.60;;;7.80;;
9541;SDS011;4809;48.224;8.572;2023-05-16T03:22:54;9.10;;;8.15;;
9541;SDS011;4809;48.224;8.572;2023-05-16T03:25:20;9.02;;;8.13;;
9541;SDS011;4809;48.224;8.572;2023-05-16T03:27:45;9.80;;;8.80;;
9541;SDS011;4809;48.224;8.572;2023-05-16T03:30:11;9.85;;;8.85;;
9541;SDS011;4809;48.224;8.572;2023-05-16T03:32:37;11.38;;;10.27;;
9541;SDS011;4809;48.224;8.572;2023-05-16T03:35:03;12.15;;;10.40;;
9541;SDS011;4809;48.224;8.572;2023-05-16T03:37:29;11.38;;;10.27;;
9541;SDS011;4809;48.224;8.572;2023-05-16T03:39:55;14.90;;;11.60;;
9541;SDS011;4809;48.224;8.572;2023-05-16T03:42:21;14.07;;;11.82;;
9541;SDS011;4809;48.224;8.572;2023-05-16T03:44:47;14.32;;;12.27;;
9541;SDS011;4809;48.224;8.572;2023-05-16T03:47:12;14.32;;;11.90;;
9541;SDS011;4809;48.224;8.572;2023-05-16T03:49:38;15.55;;;12.00;;
9541;SDS011;4809;48.224;8.572;2023-05-16T03:52:05;16.20;;;13.38;;
9541;SDS011;4809;48.224;8.572;2023-05-16T03:54:31;15.30;;;12.20;;
9541;SDS011;4809;48.224;8.572;2023-05-16T03:56:57;14.70;;;12.50;;
9541;SDS011;4809;48.224;8.572;2023-05-16T03:59:22;13.93;;;12.35;;
9541;SDS011;4809;48.224;8.572;2023-05-16T04:01:48;14.77;;;12.70;;
9541;SDS011;4809;48.224;8.572;2023-05-16T04:04:14;17.15;;;13.40;;
9541;SDS011;4809;48.224;8.572;2023-05-16T04:06:40;16.92;;;13.88;;
9541;SDS011;4809;48.224;8.572;2023-05-16T04:09:05;16.85;;;14.00;;
9541;SDS011;4809;48.224;8.572;2023-05-16T04:11:31;17.48;;;14.20;;
9541;SDS011;4809;48.224;8.572;2023-05-16T04:13:58;17.40;;;14.57;;
9541;SDS011;4809;48.224;8.572;2023-05-16T04:16:25;18.05;;;14.88;;
9541;SDS011;4809;48.224;8.572;2023-05-16T04:18:51;18.15;;;14.85;;
9541;SDS011;4809;48.224;8.572;2023-05-16T04:21:17;17.95;;;14.98;;
9541;SDS011;4809;48.224;8.572;2023-05-16T04:23:43;16.83;;;14.43;;
9541;SDS011;4809;48.224;8.572;2023-05-16T04:26:08;16.85;;;14.85;;
9541;SDS011;4809;48.224;8.572;2023-05-16T04:28:34;16.27;;;14.38;;
9541;SDS011;4809;48.224;8.572;2023-05-16T04:31:00;17.48;;;14.65;;
9541;SDS011;4809;48.224;8.572;2023-05-16T04:33:26;18.38;;;15.10;;
9541;SDS011;4809;48.224;8.572;2023-05-16T04:35:51;19.60;;;15.88;;
9541;SDS011;4809;48.224;8.572;2023-05-16T04:38:18;18.02;;;14.77;;
9541;SDS011;4809;48.224;8.572;2023-05-16T04:40:44;20.13;;;15.63;;
9541;SDS011;4809;48.224;8.572;2023-05-16T04:43:10;24.38;;;18.20;;
9541;SDS011;4809;48.224;8.572;2023-05-16T04:45:36;22.42;;;16.63;;
9541;SDS011;4809;48.224;8.572;2023-05-16T04:48:01;21.40;;;17.27;;
9541;SDS011;4809;48.224;8.572;2023-05-16T04:50:28;24.13;;;17.55;;
9541;SDS011;4809;48.224;8.572;2023-05-16T04:52:53;23.85;;;17.17;;
9541;SDS011;4809;48.224;8.572;2023-05-16T04:55:19;26.13;;;19.05;;
9541;SDS011;4809;48.224;8.572;2023-05-16T04:57:45;24.58;;;18.55;;
9541;SDS011;4809;48.224;8.572;2023-05-16T05:00:11;26.65;;;19.52;;
9541;SDS011;4809;48.224;8.572;2023-05-16T05:02:37;26.15;;;19.88;;
9541;SDS011;4809;48.224;8.572;2023-05-16T05:05:04;30.25;;;22.27;;
9541;SDS011;4809;48.224;8.572;2023-05-16T05:07:30;32.05;;;22.02;;
9541;SDS011;4809;48.224;8.572;2023-05-16T05:09:56;32.78;;;22.58;;
9541;SDS011;4809;48.224;8.572;2023-05-16T05:12:22;29.17;;;21.48;;
9541;SDS011;4809;48.224;8.572;2023-05-16T05:14:49;30.05;;;21.58;;
9541;SDS011;4809;48.224;8.572;2023-05-16T05:17:15;32.33;;;22.60;;
9541;SDS011;4809;48.224;8.572;2023-05-16T05:19:41;37.22;;;25.25;;
9541;SDS011;4809;48.224;8.572;2023-05-16T05:22:07;37.50;;;24.23;;
9541;SDS011;4809;48.224;8.572;2023-05-16T05:24:33;34.58;;;24.83;;
9541;SDS011;4809;48.224;8.572;2023-05-16T05:26:58;32.63;;;24.27;;
9541;SDS011;4809;48.224;8.572;2023-05-16T05:29:24;34.10;;;23.77;;
9541;SDS011;4809;48.224;8.572;2023-05-16T05:31:50;34.40;;;25.65;;
9541;SDS011;4809;48.224;8.572;2023-05-16T05:34:15;36.53;;;25.35;;
9541;SDS011;4809;48.224;8.572;2023-05-16T05:36:41;34.95;;;25.08;;
9541;SDS011;4809;48.224;8.572;2023-05-16T05:39:08;32.63;;;23.85;;
9541;SDS011;4809;48.224;8.572;2023-05-16T05:41:34;35.58;;;24.00;;
9541;SDS011;4809;48.224;8.572;2023-05-16T05:43:59;33.90;;;23.88;;
9541;SDS011;4809;48.224;8.572;2023-05-16T05:46:25;32.40;;;22.38;;
9541;SDS011;4809;48.224;8.572;2023-05-16T05:48:51;33.08;;;21.90;;
9541;SDS011;4809;48.224;8.572;2023-05-16T05:51:16;32.10;;;22.58;;
9541;SDS011;4809;48.224;8.572;2023-05-16T05:53:43;31.05;;;21.40;;
9541;SDS011;4809;48.224;8.572;2023-05-16T05:56:08;29.27;;;20.98;;
9541;SDS011;4809;48.224;8.572;2023-05-16T05:58:34;28.08;;;20.30;;
9541;SDS011;4809;48.224;8.572;2023-05-16T06:01:00;29.77;;;21.40;;
9541;SDS011;4809;48.224;8.572;2023-05-16T06:03:26;29.92;;;20.98;;
9541;SDS011;4809;48.224;8.572;2023-05-16T06:05:52;29.35;;;20.95;;
9541;SDS011;4809;48.224;8.572;2023-05-16T06:08:18;25.92;;;18.90;;
9541;SDS011;4809;48.224;8.572;2023-05-16T06:10:43;28.55;;;19.40;;
9541;SDS011;4809;48.224;8.572;2023-05-16T06:13:09;27.10;;;18.77;;
9541;SDS011;4809;48.224;8.572;2023-05-16T06:15:35;25.52;;;18.20;;
9541;SDS011;4809;48.224;8.572;2023-05-16T06:18:01;23.50;;;16.20;;
9541;SDS011;4809;48.224;8.572;2023-05-16T06:20:27;23.58;;;16.30;;
9541;SDS011;4809;48.224;8.572;2023-05-16T06:22:52;23.80;;;16.70;;
9541;SDS011;4809;48.224;8.572;2023-05-16T06:25:18;23.38;;;16.85;;
9541;SDS011;4809;48.224;8.572;2023-05-16T06:27:44;21.58;;;15.95;;
9541;SDS011;4809;48.224;8.572;2023-05-16T06:30:10;22.75;;;16.02;;
9541;SDS011;4809;48.224;8.572;2023-05-16T06:32:35;20.52;;;15.43;;
9541;SDS011;4809;48.224;8.572;2023-05-16T06:35:01;22.45;;;16.17;;
9541;SDS011;4809;48.224;8.572;2023-05-16T06:37:27;22.48;;;16.50;;
9541;SDS011;4809;48.224;8.572;2023-05-16T06:39:52;22.13;;;15.00;;
9541;SDS011;4809;48.224;8.572;2023-05-16T06:42:18;19.48;;;13.98;;
9541;SDS011;4809;48.224;8.572;2023-05-16T06:44:45;18.05;;;12.95;;
9541;SDS011;4809;48.224;8.572;2023-05-16T06:47:11;19.58;;;13.57;;
9541;SDS011;4809;48.224;8.572;2023-05-16T06:49:36;16.48;;;12.75;;
9541;SDS011;4809;48.224;8.572;2023-05-16T06:52:02;16.75;;;12.45;;
9541;SDS011;4809;48.224;8.572;2023-05-16T06:54:28;14.50;;;11.55;;
9541;SDS011;4809;48.224;8.572;2023-05-16T06:56:53;15.18;;;11.65;;
9541;SDS011;4809;48.224;8.572;2023-05-16T06:59:19;15.05;;;11.75;;
9541;SDS011;4809;48.224;8.572;2023-05-16T07:01:45;16.50;;;11.50;;
9541;SDS011;4809;48.224;8.572;2023-05-16T07:04:11;14.02;;;10.95;;
9541;SDS011;4809;48.224;8.572;2023-05-16T07:06:37;14.85;;;11.35;;
9541;SDS011;4809;48.224;8.572;2023-05-16T07:09:02;15.73;;;11.65;;
9541;SDS011;4809;48.224;8.572;2023-05-16T07:11:28;15.95;;;11.48;;
9541;SDS011;4809;48.224;8.572;2023-05-16T07:13:54;13.68;;;11.15;;
9541;SDS011;4809;48.224;8.572;2023-05-16T07:16:20;15.70;;;11.65;;
9541;SDS011;4809;48.224;8.572;2023-05-16T07:18:46;15.40;;;11.07;;
9541;SDS011;4809;48.224;8.572;2023-05-16T07:21:11;16.30;;;12.10;;
9541;SDS011;4809;48.224;8.572;2023-05-16T07:23:37;19.42;;;11.95;;
9541;SDS011;4809;48.224;8.572;2023-05-16T07:26:03;16.20;;;11.60;;
9541;SDS011;4809;48.224;8.572;2023-05-16T07:28:28;14.93;;;11.43;;
9541;SDS011;4809;48.224;8.572;2023-05-16T07:30:54;18.13;;;12.93;;
9541;SDS011;4809;48.224;8.572;2023-05-16T07:33:22;17.02;;;11.95;;
9541;SDS011;4809;48.224;8.572;2023-05-16T07:35:48;17.13;;;12.48;;
9541;SDS011;4809;48.224;8.572;2023-05-16T07:38:15;17.25;;;12.45;;
9541;SDS011;4809;48.224;8.572;2023-05-16T07:40:41;16.75;;;12.52;;
9541;SDS011;4809;48.224;8.572;2023-05-16T07:43:06;17.25;;;12.38;;
9541;SDS011;4809;48.224;8.572;2023-05-16T07:45:32;16.85;;;12.88;;
9541;SDS011;4809;48.224;8.572;2023-05-16T07:47:57;17.38;;;12.38;;
9541;SDS011;4809;48.224;8.572;2023-05-16T07:50:24;17.73;;;12.73;;
9541;SDS011;4809;48.224;8.572;2023-05-16T07:52:50;19.38;;;12.55;;
9541;SDS011;4809;48.224;8.572;2023-05-16T07:55:16;16.50;;;11.90;;
9541;SDS011;4809;48.224;8.572;2023-05-16T07:57:42;17.20;;;12.23;;
9541;SDS011;4809;48.224;8.572;2023-05-16T08:00:08;17.80;;;11.98;;
9541;SDS011;4809;48.224;8.572;2023-05-16T08:02:34;17.17;;;12.38;;
9541;SDS011;4809;48.224;8.572;2023-05-16T08:05:00;17.58;;;12.63;;
9541;SDS011;4809;48.224;8.572;2023-05-16T08:07:26;18.63;;;13.77;;
9541;SDS011;4809;48.224;8.572;2023-05-16T08:09:52;17.42;;;13.18;;
9541;SDS011;4809;48.224;8.572;2023-05-16T08:12:17;19.23;;;13.38;;
9541;SDS011;4809;48.224;8.572;2023-05-16T08:14:43;18.52;;;13.25;;
9541;SDS011;4809;48.224;8.572;2023-05-16T08:17:19;18.83;;;13.57;;
9541;SDS011;4809;48.224;8.572;2023-05-16T08:19:44;18.52;;;13.50;;
9541;SDS011;4809;48.224;8.572;2023-05-16T08:22:10;17.80;;;13.32;;
9541;SDS011;4809;48.224;8.572;2023-05-16T08:24:36;17.13;;;13.45;;
9541;SDS011;4809;48.224;8.572;2023-05-16T08:27:02;19.73;;;13.60;;
9541;SDS011;4809;48.224;8.572;2023-05-16T08:29:27;18.17;;;13.15;;
9541;SDS011;4809;48.224;8.572;2023-05-16T08:31:53;16.50;;;12.45;;
9541;SDS011;4809;48.224;8.572;2023-05-16T08:34:19;15.82;;;12.23;;
9541;SDS011;4809;48.224;8.572;2023-05-16T08:36:44;15.98;;;12.05;;
9541;SDS011;4809;48.224;8.572;2023-05-16T08:39:10;15.30;;;11.20;;
9541;SDS011;4809;48.224;8.572;2023-05-16T08:41:36;14.45;;;10.85;;
9541;SDS011;4809;48.224;8.572;2023-05-16T08:44:02;13.00;;;10.40;;
9541;SDS011;4809;48.224;8.572;2023-05-16T08:46:28;13.43;;;10.13;;
9541;SDS011;4809;48.224;8.572;2023-05-16T08:48:57;14.70;;;10.10;;
9541;SDS011;4809;48.224;8.572;2023-05-16T08:51:24;12.38;;;9.88;;
9541;SDS011;4809;48.224;8.572;2023-05-16T08:53:59;11.75;;;9.27;;
9541;SDS011;4809;48.224;8.572;2023-05-16T08:56:29;12.13;;;9.57;;
9541;SDS011;4809;48.224;8.572;2023-05-16T08:58:56;9.13;;;7.90;;
9541;SDS011;4809;48.224;8.572;2023-05-16T09:01:22;8.93;;;6.95;;
9541;SDS011;4809;48.224;8.572;2023-05-16T09:03:48;9.10;;;6.85;;
9541;SDS011;4809;48.224;8.572;2023-05-16T09:06:15;8.02;;;6.85;;
9541;SDS011;4809;48.224;8.572;2023-05-16T09:08:41;7.57;;;6.50;;
9541;SDS011;4809;48.224;8.572;2023-05-16T09:11:07;7.63;;;6.35;;
9541;SDS011;4809;48.224;8.572;2023-05-16T09:13:33;7.90;;;6.13;;
9541;SDS011;4809;48.224;8.572;2023-05-16T09:16:09;7.93;;;5.80;;
9541;SDS011;4809;48.224;8.572;2023-05-16T09:18:38;6.72;;;5.50;;
9541;SDS011;4809;48.224;8.572;2023-05-16T09:21:04;7.47;;;5.88;;
9541;SDS011;4809;48.224;8.572;2023-05-16T09:23:31;7.75;;;6.22;;
9541;SDS011;4809;48.224;8.572;2023-05-16T09:25:57;6.97;;;5.93;;
9541;SDS011;4809;48.224;8.572;2023-05-16T09:28:27;9.05;;;6.80;;
9541;SDS011;4809;48.224;8.572;2023-05-16T09:30:53;10.27;;;7.38;;
9541;SDS011;4809;48.224;8.572;2023-05-16T09:33:22;12.20;;;9.30;;
9541;SDS011;4809;48.224;8.572;2023-05-16T09:35:55;8.85;;;7.25;;
9541;SDS011;4809;48.224;8.572;2023-05-16T09:38:22;9.05;;;7.30;;
9541;SDS011;4809;48.224;8.572;2023-05-16T09:40:49;7.97;;;6.15;;
9541;SDS011;4809;48.224;8.572;2023-05-16T09:43:16;8.57;;;6.88;;
9541;SDS011;4809;48.224;8.572;2023-05-16T09:45:44;8.93;;;7.25;;
9541;SDS011;4809;48.224;8.572;2023-05-16T09:48:12;7.18;;;6.35;;
9541;SDS011;4809;48.224;8.572;2023-05-16T09:50:39;9.88;;;6.93;;
9541;SDS011;4809;48.224;8.572;2023-05-16T09:53:11;8.85;;;6.72;;
9541;SDS011;4809;48.224;8.572;2023-05-16T09:55:37;8.85;;;7.03;;
9541;SDS011;4809;48.224;8.572;2023-05-16T09:58:03;9.70;;;7.25;;
9541;SDS011;4809;48.224;8.572;2023-05-16T10:00:30;8.93;;;7.03;;
9541;SDS011;4809;48.224;8.572;2023-05-16T10:02:57;21.98;;;12.95;;
9541;SDS011;4809;48.224;8.572;2023-05-16T10:05:27;13.88;;;9.57;;
9541;SDS011;4809;48.224;8.572;2023-05-16T10:07:57;10.40;;;7.28;;
9541;SDS011;4809;48.224;8.572;2023-05-16T10:10:23;9.02;;;6.95;;
9541;SDS011;4809;48.224;8.572;2023-05-16T10:12:49;8.95;;;7.13;;
9541;SDS011;4809;48.224;8.572;2023-05-16T10:15:16;8.95;;;7.07;;
9541;SDS011;4809;48.224;8.572;2023-05-16T10:17:44;10.50;;;7.82;;
9541;SDS011;4809;48.224;8.572;2023-05-16T10:20:15;9.75;;;7.80;;
9541;SDS011;4809;48.224;8.572;2023-05-16T10:22:42;9.82;;;7.93;;
9541;SDS011;4809;48.224;8.572;2023-05-16T10:25:43;10.85;;;8.75;;
9541;SDS011;4809;48.224;8.572;2023-05-16T10:28:05;12.18;;;8.68;;
9541;SDS011;4809;48.224;8.572;2023-05-16T10:30:32;11.05;;;8.75;;
9541;SDS011;4809;48.224;8.572;2023-05-16T10:33:00;11.75;;;9.32;;
9541;SDS011;4809;48.224;8.572;2023-05-16T10:35:26;12.77;;;9.27;;
9541;SDS011;4809;48.224;8.572;2023-05-16T10:37:52;12.35;;;9.43;;
9541;SDS011;4809;48.224;8.572;2023-05-16T10:40:18;12.48;;;8.93;;
9541;SDS011;4809;48.224;8.572;2023-05-16T10:42:59;12.30;;;9.27;;
9541;SDS011;4809;48.224;8.572;2023-05-16T10:45:26;12.85;;;10.02;;
9541;SDS011;4809;48.224;8.572;2023-05-16T10:47:56;11.93;;;9.23;;
9541;SDS011;4809;48.224;8.572;2023-05-16T10:50:31;12.57;;;10.10;;
9541;SDS011;4809;48.224;8.572;2023-05-16T11:06:28;15.65;;;11.52;;
9541;SDS011;4809;48.224;8.572;2023-05-16T11:17:06;15.20;;;12.18;;
9541;SDS011;4809;48.224;8.572;2023-05-16T11:24:51;16.27;;;12.45;;
9541;SDS011;4809;48.224;8.572;2023-05-16T11:27:24;14.23;;;11.85;;
9541;SDS011;4809;48.224;8.572;2023-05-16T11:29:52;13.57;;;11.25;;
9541;SDS011;4809;48.224;8.572;2023-05-16T11:32:19;14.38;;;11.10;;
9541;SDS011;4809;48.224;8.572;2023-05-16T11:34:47;15.23;;;11.65;;
9541;SDS011;4809;48.224;8.572;2023-05-16T11:37:13;14.48;;;11.80;;
9541;SDS011;4809;48.224;8.572;2023-05-16T11:39:40;16.25;;;12.23;;
9541;SDS011;4809;48.224;8.572;2023-05-16T11:42:05;16.42;;;12.85;;
9541;SDS011;4809;48.224;8.572;2023-05-16T11:44:31;15.20;;;11.85;;
9541;SDS011;4809;48.224;8.572;2023-05-16T11:46:58;15.35;;;12.25;;
9541;SDS011;4809;48.224;8.572;2023-05-16T11:49:26;16.42;;;13.65;;
9541;SDS011;4809;48.224;8.572;2023-05-16T11:51:52;17.92;;;14.05;;
9541;SDS011;4809;48.224;8.572;2023-05-16T11:54:19;17.65;;;14.43;;
9541;SDS011;4809;48.224;8.572;2023-05-16T11:56:45;17.88;;;13.80;;
9541;SDS011;4809;48.224;8.572;2023-05-16T11:59:11;14.80;;;12.50;;
9541;SDS011;4809;48.224;8.572;2023-05-16T12:01:37;12.98;;;11.50;;
9541;SDS011;4809;48.224;8.572;2023-05-16T12:04:10;14.00;;;11.70;;
9541;SDS011;4809;48.224;8.572;2023-05-16T12:06:37;13.15;;;11.18;;
9541;SDS011;4809;48.224;8.572;2023-05-16T12:09:03;13.77;;;11.40;;
9541;SDS011;4809;48.224;8.572;2023-05-16T12:11:38;12.57;;;10.80;;
9541;SDS011;4809;48.224;8.572;2023-05-16T12:14:06;13.80;;;11.20;;
9541;SDS011;4809;48.224;8.572;2023-05-16T12:16:33;11.55;;;9.80;;
9541;SDS011;4809;48.224;8.572;2023-05-16T12:19:01;13.93;;;10.68;;
9541;SDS011;4809;48.224;8.572;2023-05-16T12:21:28;15.63;;;11.35;;
9541;SDS011;4809;48.224;8.572;2023-05-16T12:23:55;13.07;;;10.70;;
9541;SDS011;4809;48.224;8.572;2023-05-16T12:26:30;16.15;;;11.15;;
9541;SDS011;4809;48.224;8.572;2023-05-16T12:28:57;14.05;;;10.60;;
9541;SDS011;4809;48.224;8.572;2023-05-16T12:31:29;12.75;;;10.27;;
9541;SDS011;4809;48.224;8.572;2023-05-16T12:34:02;12.73;;;9.93;;
9541;SDS011;4809;48.224;8.572;2023-05-16T12:36:30;13.73;;;9.68;;
9541;SDS011;4809;48.224;8.572;2023-05-16T12:39:01;13.23;;;9.05;;
9541;SDS011;4809;48.224;8.572;2023-05-16T12:41:28;10.90;;;8.48;;
9541;SDS011;4809;48.224;8.572;2023-05-16T12:44:10;11.52;;;8.68;;
9541;SDS011;4809;48.224;8.572;2023-05-16T12:46:41;12.23;;;8.93;;
9541;SDS011;4809;48.224;8.572;2023-05-16T12:49:11;11.75;;;8.40;;
9541;SDS011;4809;48.224;8.572;2023-05-16T12:51:37;11.18;;;7.97;;
9541;SDS011;4809;48.224;8.572;2023-05-16T12:54:07;11.57;;;8.13;;
9541;SDS011;4809;48.224;8.572;2023-05-16T12:56:34;11.13;;;8.02;;
9541;SDS011;4809;48.224;8.572;2023-05-16T12:58:59;9.98;;;8.02;;
9541;SDS011;4809;48.224;8.572;2023-05-16T13:01:25;9.50;;;7.60;;
9541;SDS011;4809;48.224;8.572;2023-05-16T13:03:51;10.48;;;7.63;;
9541;SDS011;4809;48.224;8.572;2023-05-16T13:06:17;11.75;;;8.23;;
9541;SDS011;4809;48.224;8.572;2023-05-16T13:08:43;9.60;;;7.80;;
9541;SDS011;4809;48.224;8.572;2023-05-16T13:11:08;10.00;;;7.03;;
9541;SDS011;4809;48.224;8.572;2023-05-16T13:13:34;9.63;;;7.93;;
9541;SDS011;4809;48.224;8.572;2023-05-16T13:16:01;11.15;;;8.48;;
9541;SDS011;4809;48.224;8.572;2023-05-16T13:18:27;8.38;;;7.25;;
9541;SDS011;4809;48.224;8.572;2023-05-16T13:20:52;9.00;;;7.55;;
9541;SDS011;4809;48.224;8.572;2023-05-16T13:23:18;8.52;;;7.03;;
9541;SDS011;4809;48.224;8.572;2023-05-16T13:25:44;9.80;;;7.30;;
9541;SDS011;4809;48.224;8.572;2023-05-16T13:28:09;8.30;;;7.20;;
9541;SDS011;4809;48.224;8.572;2023-05-16T13:30:35;9.25;;;7.35;;
9541;SDS011;4809;48.224;8.572;2023-05-16T13:33:01;7.78;;;6.72;;
9541;SDS011;4809;48.224;8.572;2023-05-16T13:35:26;8.38;;;7.38;;
9541;SDS011;4809;48.224;8.572;2023-05-16T13:37:52;8.82;;;7.63;;
9541;SDS011;4809;48.224;8.572;2023-05-16T13:40:18;11.10;;;7.55;;
9541;SDS011;4809;48.224;8.572;2023-05-16T13:42:43;7.95;;;7.15;;
9541;SDS011;4809;48.224;8.572;2023-05-16T13:45:09;8.77;;;7.30;;
9541;SDS011;4809;48.224;8.572;2023-05-16T13:47:36;8.75;;;7.40;;
9541;SDS011;4809;48.224;8.572;2023-05-16T13:50:03;8.35;;;7.40;;
9541;SDS011;4809;48.224;8.572;2023-05-16T13:52:33;9.18;;;7.30;;
9541;SDS011;4809;48.224;8.572;2023-05-16T13:54:59;8.35;;;7.32;;
9541;SDS011;4809;48.224;8.572;2023-05-16T13:57:25;8.32;;;6.50;;
9541;SDS011;4809;48.224;8.572;2023-05-16T13:59:51;10.00;;;8.80;;
9541;SDS011;4809;48.224;8.572;2023-05-16T14:02:17;8.07;;;7.28;;
9541;SDS011;4809;48.224;8.572;2023-05-16T14:04:43;9.27;;;8.02;;
9541;SDS011;4809;48.224;8.572;2023-05-16T14:07:09;8.95;;;7.43;;
9541;SDS011;4809;48.224;8.572;2023-05-16T14:09:35;7.93;;;6.90;;
9541;SDS011;4809;48.224;8.572;2023-05-16T14:12:03;8.88;;;7.03;;
9541;SDS011;4809;48.224;8.572;2023-05-16T14:14:33;8.25;;;7.40;;
9541;SDS011;4809;48.224;8.572;2023-05-16T14:16:59;7.10;;;6.40;;
9541;SDS011;4809;48.224;8.572;2023-05-16T14:19:25;7.55;;;6.35;;
9541;SDS011;4809;48.224;8.572;2023-05-16T14:21:50;8.07;;;6.57;;
9541;SDS011;4809;48.224;8.572;2023-05-16T14:24:16;8.25;;;6.53;;
9541;SDS011;4809;48.224;8.572;2023-05-16T14:26:42;7.93;;;6.53;;
9541;SDS011;4809;48.224;8.572;2023-05-16T14:29:08;5.53;;;4.93;;
9541;SDS011;4809;48.224;8.572;2023-05-16T14:31:33;6.53;;;5.05;;
9541;SDS011;4809;48.224;8.572;2023-05-16T14:34:00;21.70;;;13.77;;
9541;SDS011;4809;48.224;8.572;2023-05-16T14:36:26;9.13;;;7.03;;
9541;SDS011;4809;48.224;8.572;2023-05-16T14:38:52;9.02;;;6.97;;
9541;SDS011;4809;48.224;8.572;2023-05-16T14:41:17;7.60;;;5.80;;
9541;SDS011;4809;48.224;8.572;2023-05-16T14:43:43;8.43;;;6.15;;
9541;SDS011;4809;48.224;8.572;2023-05-16T14:46:09;9.18;;;7.20;;
9541;SDS011;4809;48.224;8.572;2023-05-16T14:48:35;10.15;;;7.47;;
9541;SDS011;4809;48.224;8.572;2023-05-16T14:51:01;8.60;;;7.15;;
9541;SDS011;4809;48.224;8.572;2023-05-16T14:53:28;8.38;;;6.68;;
9541;SDS011;4809;48.224;8.572;2023-05-16T14:55:54;10.32;;;7.57;;
9541;SDS011;4809;48.224;8.572;2023-05-16T14:58:20;9.45;;;7.45;;
9541;SDS011;4809;48.224;8.572;2023-05-16T15:00:45;8.70;;;6.47;;
9541;SDS011;4809;48.224;8.572;2023-05-16T15:03:11;7.65;;;5.75;;
9541;SDS011;4809;48.224;8.572;2023-05-16T15:05:36;6.78;;;5.80;;
9541;SDS011;4809;48.224;8.572;2023-05-16T15:08:02;6.68;;;5.28;;
9541;SDS011;4809;48.224;8.572;2023-05-16T15:10:28;6.72;;;5.57;;
9541;SDS011;4809;48.224;8.572;2023-05-16T15:12:54;7.18;;;5.57;;
9541;SDS011;4809;48.224;8.572;2023-05-16T15:15:19;6.75;;;5.93;;
9541;SDS011;4809;48.224;8.572;2023-05-16T15:17:45;6.65;;;5.50;;
9541;SDS011;4809;48.224;8.572;2023-05-16T15:20:11;9.05;;;7.22;;
9541;SDS011;4809;48.224;8.572;2023-05-16T15:22:37;7.18;;;5.65;;
9541;SDS011;4809;48.224;8.572;2023-05-16T15:25:05;11.68;;;8.40;;
9541;SDS011;4809;48.224;8.572;2023-05-16T15:27:31;7.20;;;6.07;;
9541;SDS011;4809;48.224;8.572;2023-05-16T15:29:57;6.70;;;5.97;;
9541;SDS011;4809;48.224;8.572;2023-05-16T15:32:23;5.65;;;4.88;;
9541;SDS011;4809;48.224;8.572;2023-05-16T15:34:50;6.97;;;5.63;;
9541;SDS011;4809;48.224;8.572;2023-05-16T15:37:15;7.22;;;5.45;;
9541;SDS011;4809;48.224;8.572;2023-05-16T15:39:41;6.05;;;5.00;;